FWV9 LEAL-LGSK
Flight info
| Callsign | FWV9 |
|---|---|
| Flight time | 2h 35m |
| Altitude | 34000 |
| Route | MAGAL DCT SIGFO |
| Aircraft | A320/M-SDE3FGHIRWY/LB1 |
Departure
| Time | 2026-05-04 19:24 |
|---|---|
| Airport | Alicante-Elche Miguel Hernández Airport (LEAL) |
Arrival
| Time | 2026-05-04 21:59 |
|---|---|
| Airport | Skiathos Island National Airport (LGSK) |
| Time | Latitude | Longitude | Altitude | Speed | Heading |
|---|---|---|---|---|---|
| 2026-05-04 18:47 | 38.28519 | -0.55233 | 88 ft | 0 kts | 11° |
| 2026-05-04 19:13 | 38.28518 | -0.55233 | 88 ft | 1 kts | 11° |
| 2026-05-04 19:13 | 38.28495 | -0.55238 | 71 ft | 4 kts | 7° |
| 2026-05-04 19:13 | 38.28468 | -0.55241 | 91 ft | 4 kts | 353° |
| 2026-05-04 19:13 | 38.28446 | -0.55231 | 90 ft | 4 kts | 297° |
| 2026-05-04 19:14 | 38.28444 | -0.55224 | 90 ft | 0 kts | 280° |
| 2026-05-04 19:17 | 38.28451 | -0.55279 | 89 ft | 12 kts | 281° |
| 2026-05-04 19:17 | 38.28464 | -0.55368 | 91 ft | 11 kts | 279° |
| 2026-05-04 19:18 | 38.28477 | -0.55468 | 93 ft | 10 kts | 279° |
| 2026-05-04 19:18 | 38.28495 | -0.55576 | 96 ft | 14 kts | 287° |
| 2026-05-04 19:18 | 38.28513 | -0.55696 | 99 ft | 15 kts | 279° |
| 2026-05-04 19:18 | 38.28528 | -0.55806 | 100 ft | 11 kts | 280° |
| 2026-05-04 19:19 | 38.28546 | -0.55925 | 100 ft | 16 kts | 280° |
| 2026-05-04 19:19 | 38.28577 | -0.56062 | 100 ft | 18 kts | 284° |
| 2026-05-04 19:19 | 38.28598 | -0.56213 | 102 ft | 16 kts | 279° |
| 2026-05-04 19:19 | 38.28618 | -0.56353 | 108 ft | 21 kts | 280° |
| 2026-05-04 19:20 | 38.28640 | -0.56513 | 116 ft | 11 kts | 278° |
| 2026-05-04 19:20 | 38.28620 | -0.56587 | 117 ft | 11 kts | 212° |
| 2026-05-04 19:20 | 38.28540 | -0.56612 | 117 ft | 11 kts | 192° |
| 2026-05-04 19:20 | 38.28516 | -0.56682 | 121 ft | 12 kts | 276° |
| 2026-05-04 19:21 | 38.28534 | -0.56815 | 125 ft | 14 kts | 281° |
| 2026-05-04 19:21 | 38.28551 | -0.56932 | 133 ft | 11 kts | 280° |
| 2026-05-04 19:21 | 38.28567 | -0.57045 | 138 ft | 17 kts | 280° |
| 2026-05-04 19:21 | 38.28585 | -0.57174 | 144 ft | 12 kts | 280° |
| 2026-05-04 19:22 | 38.28600 | -0.57292 | 149 ft | 12 kts | 279° |
| 2026-05-04 19:22 | 38.28607 | -0.57381 | 151 ft | 9 kts | 259° |
| 2026-05-04 19:22 | 38.28555 | -0.57427 | 154 ft | 11 kts | 195° |
| 2026-05-04 19:22 | 38.28539 | -0.57430 | 154 ft | 0 kts | 189° |
| 2026-05-04 19:23 | 38.28531 | -0.57432 | 154 ft | 4 kts | 188° |
| 2026-05-04 19:23 | 38.28477 | -0.57442 | 155 ft | 9 kts | 188° |
| 2026-05-04 19:23 | 38.28439 | -0.57397 | 153 ft | 9 kts | 106° |
| 2026-05-04 19:23 | 38.28437 | -0.57383 | 152 ft | 4 kts | 100° |
| 2026-05-04 19:24 | 38.28384 | -0.57005 | 135 ft | 82 kts | 100° |
| 2026-05-04 19:24 | 38.28247 | -0.56022 | 108 ft | 141 kts | 100° |
| 2026-05-04 19:24 | 38.28050 | -0.54618 | 318 ft | 167 kts | 100° |
| 2026-05-04 19:24 | 38.27823 | -0.53188 | 1073 ft | 164 kts | 103° |
| 2026-05-04 19:25 | 38.27572 | -0.51775 | 1746 ft | 164 kts | 103° |
| 2026-05-04 19:25 | 38.27304 | -0.50295 | 2089 ft | 182 kts | 104° |
| 2026-05-04 19:25 | 38.27021 | -0.48630 | 2316 ft | 203 kts | 102° |
| 2026-05-04 19:25 | 38.26466 | -0.46894 | 2499 ft | 224 kts | 129° |
| 2026-05-04 19:26 | 38.25186 | -0.45634 | 2759 ft | 246 kts | 153° |
| 2026-05-04 19:26 | 38.23620 | -0.44574 | 3253 ft | 260 kts | 154° |
| 2026-05-04 19:26 | 38.21999 | -0.43480 | 3954 ft | 267 kts | 154° |
| 2026-05-04 19:26 | 38.20364 | -0.42372 | 4656 ft | 273 kts | 154° |
| 2026-05-04 19:27 | 38.18668 | -0.41219 | 5339 ft | 280 kts | 155° |
| 2026-05-04 19:27 | 38.17054 | -0.39757 | 5971 ft | 292 kts | 134° |
| 2026-05-04 19:27 | 38.15802 | -0.37692 | 6705 ft | 296 kts | 128° |
| 2026-05-04 19:27 | 38.14585 | -0.35583 | 7483 ft | 297 kts | 129° |
| 2026-05-04 19:28 | 38.13356 | -0.33457 | 8238 ft | 299 kts | 129° |
| 2026-05-04 19:28 | 38.12120 | -0.31321 | 8977 ft | 302 kts | 130° |
| 2026-05-04 19:28 | 38.10866 | -0.29162 | 9720 ft | 304 kts | 130° |
| 2026-05-04 19:28 | 38.09626 | -0.26945 | 10206 ft | 318 kts | 124° |
| 2026-05-04 19:29 | 38.08647 | -0.24301 | 10363 ft | 345 kts | 111° |
| 2026-05-04 19:29 | 38.08105 | -0.21224 | 10499 ft | 370 kts | 97° |
| 2026-05-04 19:29 | 38.08104 | -0.17907 | 10896 ft | 382 kts | 84° |
| 2026-05-04 19:29 | 38.08550 | -0.14549 | 11434 ft | 388 kts | 80° |
| 2026-05-04 19:30 | 38.08868 | -0.12306 | 11822 ft | 391 kts | 81° |
| 2026-05-04 19:30 | 38.09497 | -0.07766 | 12582 ft | 397 kts | 81° |
| 2026-05-04 19:30 | 38.09973 | -0.04292 | 13159 ft | 402 kts | 81° |
| 2026-05-04 19:30 | 38.10453 | -0.00772 | 13723 ft | 407 kts | 81° |
| 2026-05-04 19:31 | 38.10939 | 0.02784 | 14235 ft | 411 kts | 81° |
| 2026-05-04 19:31 | 38.11272 | 0.05205 | 14577 ft | 413 kts | 81° |
| 2026-05-04 19:31 | 38.11764 | 0.08774 | 15081 ft | 417 kts | 81° |
| 2026-05-04 19:31 | 38.12268 | 0.12421 | 15585 ft | 421 kts | 81° |
| 2026-05-04 19:32 | 38.12774 | 0.16096 | 16079 ft | 425 kts | 81° |
| 2026-05-04 19:32 | 38.13282 | 0.19808 | 16563 ft | 428 kts | 81° |
| 2026-05-04 19:32 | 38.13795 | 0.23554 | 17046 ft | 432 kts | 81° |
| 2026-05-04 19:32 | 38.14312 | 0.27331 | 17523 ft | 435 kts | 81° |
| 2026-05-04 19:33 | 38.14831 | 0.31139 | 17994 ft | 439 kts | 81° |
| 2026-05-04 19:33 | 38.15350 | 0.34975 | 18421 ft | 443 kts | 81° |
| 2026-05-04 19:33 | 38.15872 | 0.38846 | 18803 ft | 446 kts | 82° |
| 2026-05-04 19:33 | 38.16395 | 0.42744 | 19194 ft | 449 kts | 82° |
| 2026-05-04 19:34 | 38.16929 | 0.46734 | 19596 ft | 452 kts | 82° |
| 2026-05-04 19:34 | 38.17448 | 0.50636 | 19987 ft | 456 kts | 82° |
| 2026-05-04 19:34 | 38.17978 | 0.54617 | 20367 ft | 459 kts | 82° |
| 2026-05-04 19:34 | 38.18513 | 0.58631 | 20741 ft | 462 kts | 82° |
| 2026-05-04 19:35 | 38.19053 | 0.62671 | 21148 ft | 465 kts | 82° |
| 2026-05-04 19:35 | 38.19597 | 0.66741 | 21522 ft | 468 kts | 82° |
| 2026-05-04 19:35 | 38.20136 | 0.70780 | 21890 ft | 471 kts | 82° |
| 2026-05-04 19:35 | 38.20679 | 0.74898 | 22250 ft | 474 kts | 83° |
| 2026-05-04 19:36 | 38.21230 | 0.79104 | 22590 ft | 477 kts | 83° |
| 2026-05-04 19:36 | 38.21770 | 0.83225 | 22920 ft | 481 kts | 83° |
| 2026-05-04 19:36 | 38.22320 | 0.87432 | 23264 ft | 484 kts | 83° |
| 2026-05-04 19:36 | 38.22871 | 0.91663 | 23593 ft | 487 kts | 83° |
| 2026-05-04 19:37 | 38.23424 | 0.95919 | 23877 ft | 489 kts | 83° |
| 2026-05-04 19:37 | 38.23980 | 1.00199 | 24164 ft | 492 kts | 83° |
| 2026-05-04 19:37 | 38.24540 | 1.04510 | 24444 ft | 494 kts | 83° |
| 2026-05-04 19:37 | 38.25100 | 1.08830 | 24723 ft | 496 kts | 83° |
| 2026-05-04 19:38 | 38.25660 | 1.13176 | 24998 ft | 499 kts | 83° |
| 2026-05-04 19:38 | 38.26219 | 1.17540 | 25248 ft | 501 kts | 84° |
| 2026-05-04 19:38 | 38.26777 | 1.21928 | 25515 ft | 503 kts | 84° |
| 2026-05-04 19:38 | 38.27335 | 1.26338 | 25788 ft | 506 kts | 84° |
| 2026-05-04 19:39 | 38.27896 | 1.30762 | 26060 ft | 508 kts | 84° |
| 2026-05-04 19:39 | 38.28457 | 1.35204 | 26330 ft | 510 kts | 84° |
| 2026-05-04 19:39 | 38.29016 | 1.39613 | 26592 ft | 512 kts | 84° |
| 2026-05-04 19:39 | 38.29583 | 1.44094 | 26848 ft | 514 kts | 84° |
| 2026-05-04 19:40 | 38.30151 | 1.48604 | 27097 ft | 516 kts | 84° |
| 2026-05-04 19:40 | 38.30720 | 1.53128 | 27316 ft | 518 kts | 84° |
| 2026-05-04 19:40 | 38.31288 | 1.57666 | 27569 ft | 520 kts | 84° |
| 2026-05-04 19:40 | 38.31854 | 1.62219 | 27806 ft | 522 kts | 84° |
| 2026-05-04 19:41 | 38.32417 | 1.66795 | 28045 ft | 524 kts | 84° |
| 2026-05-04 19:41 | 38.32981 | 1.71386 | 28283 ft | 526 kts | 84° |
| 2026-05-04 19:41 | 38.33547 | 1.75991 | 28505 ft | 527 kts | 84° |
| 2026-05-04 19:41 | 38.34115 | 1.80616 | 28719 ft | 529 kts | 84° |
| 2026-05-04 19:42 | 38.34682 | 1.85248 | 28943 ft | 531 kts | 84° |
| 2026-05-04 19:42 | 38.35252 | 1.89916 | 29158 ft | 533 kts | 84° |
| 2026-05-04 19:42 | 38.35820 | 1.94580 | 29458 ft | 532 kts | 84° |
| 2026-05-04 19:42 | 38.36382 | 1.99225 | 29826 ft | 530 kts | 84° |
| 2026-05-04 19:43 | 38.36940 | 2.03862 | 30136 ft | 529 kts | 84° |
| 2026-05-04 19:43 | 38.37495 | 2.08503 | 30397 ft | 529 kts | 84° |
| 2026-05-04 19:43 | 38.38049 | 2.13129 | 30648 ft | 529 kts | 84° |
| 2026-05-04 19:43 | 38.38605 | 2.17768 | 30896 ft | 529 kts | 84° |
| 2026-05-04 19:44 | 38.39156 | 2.22396 | 31149 ft | 528 kts | 84° |
| 2026-05-04 19:44 | 38.39703 | 2.27028 | 31400 ft | 528 kts | 84° |
| 2026-05-04 19:44 | 38.40239 | 2.31605 | 31639 ft | 527 kts | 85° |
| 2026-05-04 19:44 | 38.40778 | 2.36218 | 31946 ft | 526 kts | 85° |
| 2026-05-04 19:45 | 38.41320 | 2.40824 | 32212 ft | 525 kts | 85° |
| 2026-05-04 19:45 | 38.41862 | 2.45436 | 32464 ft | 525 kts | 85° |
| 2026-05-04 19:45 | 38.42401 | 2.50043 | 32703 ft | 525 kts | 85° |
| 2026-05-04 19:45 | 38.42938 | 2.54644 | 32941 ft | 525 kts | 85° |
| 2026-05-04 19:46 | 38.43471 | 2.59249 | 33176 ft | 525 kts | 85° |
| 2026-05-04 19:46 | 38.44001 | 2.63852 | 33407 ft | 525 kts | 85° |
| 2026-05-04 19:46 | 38.44526 | 2.68464 | 33607 ft | 525 kts | 85° |
| 2026-05-04 19:46 | 38.45046 | 2.73070 | 33830 ft | 525 kts | 85° |
| 2026-05-04 19:47 | 38.45568 | 2.77692 | 33974 ft | 526 kts | 85° |
| 2026-05-04 19:47 | 38.46609 | 2.86862 | 33996 ft | 525 kts | 85° |
| 2026-05-04 19:48 | 38.47656 | 2.96082 | 33999 ft | 525 kts | 85° |
| 2026-05-04 19:48 | 38.48694 | 3.05304 | 33979 ft | 525 kts | 85° |
| 2026-05-04 19:49 | 38.49714 | 3.14527 | 34006 ft | 524 kts | 85° |
| 2026-05-04 19:49 | 38.50720 | 3.23742 | 34007 ft | 524 kts | 85° |
| 2026-05-04 19:50 | 38.51726 | 3.32961 | 34011 ft | 524 kts | 85° |
| 2026-05-04 19:50 | 38.52729 | 3.42187 | 34013 ft | 524 kts | 85° |
| 2026-05-04 19:51 | 38.53724 | 3.51408 | 34015 ft | 524 kts | 85° |
| 2026-05-04 19:51 | 38.54705 | 3.60632 | 34020 ft | 524 kts | 85° |
| 2026-05-04 19:52 | 38.55687 | 3.69859 | 34026 ft | 524 kts | 85° |
| 2026-05-04 19:52 | 38.56660 | 3.79089 | 34025 ft | 524 kts | 86° |
| 2026-05-04 19:53 | 38.57619 | 3.88323 | 34011 ft | 524 kts | 86° |
| 2026-05-04 19:53 | 38.58576 | 3.97551 | 34026 ft | 523 kts | 86° |
| 2026-05-04 19:54 | 38.59529 | 4.06784 | 34044 ft | 524 kts | 86° |
| 2026-05-04 19:54 | 38.60463 | 4.15951 | 34040 ft | 524 kts | 86° |
| 2026-05-04 19:55 | 38.61391 | 4.25199 | 34027 ft | 524 kts | 86° |
| 2026-05-04 19:55 | 38.62317 | 4.34427 | 34028 ft | 524 kts | 86° |
| 2026-05-04 19:56 | 38.63241 | 4.43676 | 34021 ft | 524 kts | 86° |
| 2026-05-04 19:56 | 38.64158 | 4.52919 | 34030 ft | 524 kts | 86° |
| 2026-05-04 19:57 | 38.65063 | 4.62155 | 34029 ft | 523 kts | 85° |
| 2026-05-04 19:57 | 38.65951 | 4.71340 | 34045 ft | 522 kts | 85° |
| 2026-05-04 19:58 | 38.66836 | 4.80551 | 34048 ft | 521 kts | 86° |
| 2026-05-04 19:58 | 38.67709 | 4.89749 | 34050 ft | 521 kts | 86° |
| 2026-05-04 19:59 | 38.68579 | 4.98942 | 34037 ft | 520 kts | 85° |
| 2026-05-04 19:59 | 38.69446 | 5.08136 | 34046 ft | 519 kts | 85° |
| 2026-05-04 20:00 | 38.70301 | 5.17311 | 34048 ft | 519 kts | 85° |
| 2026-05-04 20:00 | 38.71152 | 5.26488 | 34049 ft | 518 kts | 85° |
| 2026-05-04 20:01 | 38.71987 | 5.35663 | 34042 ft | 518 kts | 85° |
| 2026-05-04 20:01 | 38.72810 | 5.44768 | 34045 ft | 518 kts | 85° |
| 2026-05-04 20:02 | 38.73631 | 5.53942 | 34042 ft | 518 kts | 85° |
| 2026-05-04 20:02 | 38.74443 | 5.63095 | 34042 ft | 517 kts | 85° |
| 2026-05-04 20:03 | 38.75256 | 5.72257 | 34046 ft | 517 kts | 85° |
| 2026-05-04 20:03 | 38.76055 | 5.81407 | 34047 ft | 516 kts | 85° |
| 2026-05-04 20:04 | 38.76853 | 5.90551 | 34047 ft | 516 kts | 85° |
| 2026-05-04 20:04 | 38.77642 | 5.99688 | 34045 ft | 515 kts | 85° |
| 2026-05-04 20:05 | 38.78416 | 6.08784 | 34044 ft | 515 kts | 85° |
| 2026-05-04 20:05 | 38.79181 | 6.17907 | 34038 ft | 514 kts | 85° |
| 2026-05-04 20:06 | 38.79928 | 6.27010 | 34045 ft | 513 kts | 85° |
| 2026-05-04 20:06 | 38.80677 | 6.36102 | 34044 ft | 512 kts | 85° |
| 2026-05-04 20:07 | 38.81424 | 6.45190 | 34046 ft | 512 kts | 85° |
| 2026-05-04 20:07 | 38.82167 | 6.54272 | 34047 ft | 511 kts | 85° |
| 2026-05-04 20:08 | 38.82902 | 6.63344 | 34052 ft | 510 kts | 85° |
| 2026-05-04 20:08 | 38.83611 | 6.72330 | 34054 ft | 510 kts | 85° |
| 2026-05-04 20:09 | 38.84321 | 6.81369 | 34055 ft | 509 kts | 85° |
| 2026-05-04 20:09 | 38.85024 | 6.90406 | 34049 ft | 508 kts | 85° |
| 2026-05-04 20:10 | 38.85724 | 6.99419 | 34059 ft | 508 kts | 85° |
| 2026-05-04 20:10 | 38.86408 | 7.08434 | 34061 ft | 507 kts | 85° |
| 2026-05-04 20:11 | 38.87083 | 7.17435 | 34060 ft | 507 kts | 85° |
| 2026-05-04 20:11 | 38.87753 | 7.26436 | 34056 ft | 507 kts | 85° |
| 2026-05-04 20:12 | 38.88423 | 7.35431 | 34054 ft | 506 kts | 85° |
| 2026-05-04 20:12 | 38.89092 | 7.44430 | 34075 ft | 506 kts | 85° |
| 2026-05-04 20:13 | 38.89740 | 7.53424 | 34068 ft | 505 kts | 85° |
| 2026-05-04 20:13 | 38.90374 | 7.62356 | 34051 ft | 505 kts | 86° |
| 2026-05-04 20:14 | 38.91012 | 7.71338 | 34057 ft | 504 kts | 86° |
| 2026-05-04 20:14 | 38.91644 | 7.80314 | 34060 ft | 504 kts | 86° |
| 2026-05-04 20:15 | 38.92262 | 7.89232 | 34060 ft | 504 kts | 86° |
| 2026-05-04 20:15 | 38.92878 | 7.98197 | 34048 ft | 504 kts | 86° |
| 2026-05-04 20:16 | 38.93488 | 8.07171 | 34052 ft | 504 kts | 86° |
| 2026-05-04 20:16 | 38.94089 | 8.16146 | 34058 ft | 504 kts | 86° |
| 2026-05-04 20:17 | 38.94686 | 8.25129 | 34058 ft | 504 kts | 86° |
| 2026-05-04 20:17 | 38.95272 | 8.34117 | 34059 ft | 505 kts | 86° |
| 2026-05-04 20:18 | 38.95851 | 8.43086 | 34065 ft | 504 kts | 86° |
| 2026-05-04 20:18 | 38.96430 | 8.52073 | 34073 ft | 504 kts | 86° |
| 2026-05-04 20:19 | 38.96996 | 8.60981 | 34071 ft | 503 kts | 86° |
| 2026-05-04 20:19 | 38.97554 | 8.69945 | 34076 ft | 503 kts | 86° |
| 2026-05-04 20:20 | 38.98100 | 8.78913 | 34074 ft | 503 kts | 86° |
| 2026-05-04 20:20 | 38.98643 | 8.87877 | 34082 ft | 503 kts | 86° |
| 2026-05-04 20:21 | 38.99182 | 8.96840 | 34080 ft | 503 kts | 86° |
| 2026-05-04 20:21 | 38.99980 | 9.10289 | 34085 ft | 503 kts | 86° |
| 2026-05-04 20:22 | 39.00410 | 9.17739 | 34085 ft | 503 kts | 86° |
| 2026-05-04 20:22 | 39.00919 | 9.26711 | 34086 ft | 503 kts | 86° |
| 2026-05-04 20:23 | 39.01431 | 9.35678 | 34085 ft | 503 kts | 86° |
| 2026-05-04 20:23 | 39.01940 | 9.44641 | 34084 ft | 503 kts | 87° |
| 2026-05-04 20:24 | 39.02438 | 9.53619 | 34080 ft | 503 kts | 87° |
| 2026-05-04 20:24 | 39.02928 | 9.62587 | 34084 ft | 503 kts | 87° |
| 2026-05-04 20:25 | 39.03401 | 9.71549 | 34085 ft | 502 kts | 87° |
| 2026-05-04 20:25 | 39.03865 | 9.80462 | 34086 ft | 502 kts | 87° |
| 2026-05-04 20:26 | 39.04335 | 9.89441 | 34082 ft | 502 kts | 87° |
| 2026-05-04 20:26 | 39.04798 | 9.98414 | 34084 ft | 503 kts | 87° |
| 2026-05-04 20:27 | 39.05246 | 10.07389 | 34086 ft | 503 kts | 87° |
| 2026-05-04 20:27 | 39.05693 | 10.16376 | 34089 ft | 503 kts | 87° |
| 2026-05-04 20:28 | 39.06138 | 10.25347 | 34082 ft | 503 kts | 87° |
| 2026-05-04 20:28 | 39.06574 | 10.34331 | 34092 ft | 503 kts | 87° |
| 2026-05-04 20:29 | 39.06993 | 10.43309 | 34097 ft | 503 kts | 87° |
| 2026-05-04 20:29 | 39.07414 | 10.52296 | 34098 ft | 503 kts | 87° |
| 2026-05-04 20:30 | 39.07828 | 10.61218 | 34092 ft | 503 kts | 86° |
| 2026-05-04 20:30 | 39.08235 | 10.70194 | 34098 ft | 503 kts | 87° |
| 2026-05-04 20:31 | 39.08634 | 10.79177 | 34122 ft | 502 kts | 87° |
| 2026-05-04 20:31 | 39.09028 | 10.88158 | 34124 ft | 502 kts | 87° |
| 2026-05-04 20:32 | 39.09409 | 10.97131 | 34121 ft | 502 kts | 87° |
| 2026-05-04 20:32 | 39.09780 | 11.06099 | 34124 ft | 502 kts | 87° |
| 2026-05-04 20:33 | 39.10146 | 11.15071 | 34122 ft | 502 kts | 87° |
| 2026-05-04 20:33 | 39.10507 | 11.24036 | 34117 ft | 502 kts | 87° |
| 2026-05-04 20:34 | 39.10868 | 11.33005 | 34113 ft | 501 kts | 87° |
| 2026-05-04 20:34 | 39.11221 | 11.41964 | 34124 ft | 501 kts | 87° |
| 2026-05-04 20:35 | 39.11560 | 11.50917 | 34129 ft | 500 kts | 87° |
| 2026-05-04 20:35 | 39.11896 | 11.59869 | 34129 ft | 500 kts | 87° |
| 2026-05-04 20:36 | 39.12223 | 11.68815 | 34121 ft | 500 kts | 87° |
| 2026-05-04 20:36 | 39.12541 | 11.77744 | 34138 ft | 499 kts | 87° |
| 2026-05-04 20:37 | 39.12849 | 11.86659 | 34144 ft | 498 kts | 87° |
| 2026-05-04 20:37 | 39.13156 | 11.95507 | 34146 ft | 497 kts | 87° |
| 2026-05-04 20:38 | 39.13461 | 12.04398 | 34143 ft | 497 kts | 87° |
| 2026-05-04 20:38 | 39.13762 | 12.13283 | 34151 ft | 496 kts | 87° |
| 2026-05-04 20:39 | 39.14042 | 12.22155 | 34154 ft | 495 kts | 87° |
| 2026-05-04 20:39 | 39.14312 | 12.31004 | 34152 ft | 494 kts | 87° |
| 2026-05-04 20:40 | 39.14585 | 12.39849 | 34168 ft | 494 kts | 87° |
| 2026-05-04 20:40 | 39.14847 | 12.48694 | 34160 ft | 494 kts | 87° |
| 2026-05-04 20:41 | 39.15102 | 12.57525 | 34154 ft | 493 kts | 87° |
| 2026-05-04 20:41 | 39.15357 | 12.66364 | 34153 ft | 493 kts | 87° |
| 2026-05-04 20:42 | 39.15603 | 12.75194 | 34150 ft | 493 kts | 87° |
| 2026-05-04 20:42 | 39.15839 | 12.84035 | 34147 ft | 494 kts | 87° |
| 2026-05-04 20:43 | 39.16068 | 12.92870 | 34145 ft | 494 kts | 87° |
| 2026-05-04 20:43 | 39.16291 | 13.01662 | 34145 ft | 494 kts | 87° |
| 2026-05-04 20:44 | 39.16504 | 13.10508 | 34152 ft | 494 kts | 87° |
| 2026-05-04 20:44 | 39.16708 | 13.19355 | 34145 ft | 494 kts | 87° |
| 2026-05-04 20:45 | 39.16906 | 13.28220 | 34147 ft | 494 kts | 87° |
| 2026-05-04 20:45 | 39.17107 | 13.37074 | 34151 ft | 494 kts | 87° |
| 2026-05-04 20:46 | 39.17301 | 13.45873 | 34152 ft | 494 kts | 87° |
| 2026-05-04 20:46 | 39.17481 | 13.54733 | 34164 ft | 494 kts | 87° |
| 2026-05-04 20:47 | 39.17656 | 13.63589 | 34161 ft | 494 kts | 87° |
| 2026-05-04 20:47 | 39.17830 | 13.72452 | 34160 ft | 494 kts | 87° |
| 2026-05-04 20:48 | 39.17990 | 13.81307 | 34162 ft | 494 kts | 87° |
| 2026-05-04 20:48 | 39.18143 | 13.90170 | 34165 ft | 495 kts | 87° |
| 2026-05-04 20:49 | 39.18293 | 13.99038 | 34170 ft | 495 kts | 87° |
| 2026-05-04 20:49 | 39.18446 | 14.07859 | 34164 ft | 495 kts | 87° |
| 2026-05-04 20:50 | 39.18592 | 14.16748 | 34163 ft | 495 kts | 87° |
| 2026-05-04 20:50 | 39.18710 | 14.25628 | 34163 ft | 496 kts | 86° |
| 2026-05-04 20:51 | 39.18820 | 14.34518 | 34159 ft | 496 kts | 86° |
| 2026-05-04 20:51 | 39.18938 | 14.43410 | 34158 ft | 496 kts | 86° |
| 2026-05-04 20:52 | 39.19050 | 14.52310 | 34158 ft | 496 kts | 86° |
| 2026-05-04 20:52 | 39.19153 | 14.61211 | 34159 ft | 496 kts | 86° |
| 2026-05-04 20:53 | 39.19250 | 14.70110 | 34159 ft | 496 kts | 86° |
| 2026-05-04 20:53 | 39.19345 | 14.78960 | 34160 ft | 496 kts | 86° |
| 2026-05-04 20:54 | 39.19433 | 14.87854 | 34160 ft | 496 kts | 87° |
| 2026-05-04 20:54 | 39.19510 | 14.96759 | 34165 ft | 496 kts | 86° |
| 2026-05-04 20:55 | 39.19577 | 15.05658 | 34168 ft | 496 kts | 86° |
| 2026-05-04 20:55 | 39.19639 | 15.14555 | 34173 ft | 496 kts | 86° |
| 2026-05-04 20:56 | 39.19690 | 15.23437 | 34184 ft | 495 kts | 86° |
| 2026-05-04 20:56 | 39.19737 | 15.32322 | 34193 ft | 495 kts | 86° |
| 2026-05-04 20:57 | 39.19777 | 15.41133 | 34197 ft | 494 kts | 86° |
| 2026-05-04 20:57 | 39.19813 | 15.49991 | 34194 ft | 494 kts | 86° |
| 2026-05-04 20:58 | 39.19849 | 15.58856 | 34210 ft | 493 kts | 86° |
| 2026-05-04 20:58 | 39.19867 | 15.67697 | 34226 ft | 493 kts | 85° |
| 2026-05-04 20:59 | 39.19885 | 15.76525 | 34214 ft | 492 kts | 85° |
| 2026-05-04 20:59 | 39.19902 | 15.85358 | 34216 ft | 492 kts | 85° |
| 2026-05-04 21:00 | 39.19897 | 15.94174 | 34226 ft | 492 kts | 85° |
| 2026-05-04 21:00 | 39.19889 | 16.02997 | 34230 ft | 492 kts | 85° |
| 2026-05-04 21:01 | 39.19881 | 16.11824 | 34232 ft | 492 kts | 85° |
| 2026-05-04 21:01 | 39.19865 | 16.20637 | 34227 ft | 492 kts | 85° |
| 2026-05-04 21:02 | 39.19836 | 16.29446 | 34226 ft | 491 kts | 85° |
| 2026-05-04 21:02 | 39.19806 | 16.38211 | 34249 ft | 491 kts | 85° |
| 2026-05-04 21:03 | 39.19772 | 16.47014 | 34253 ft | 491 kts | 85° |
| 2026-05-04 21:03 | 39.19724 | 16.55830 | 34250 ft | 491 kts | 85° |
| 2026-05-04 21:04 | 39.19664 | 16.64630 | 34235 ft | 492 kts | 85° |
| 2026-05-04 21:04 | 39.19608 | 16.73444 | 34251 ft | 491 kts | 85° |
| 2026-05-04 21:05 | 39.19543 | 16.82246 | 34227 ft | 491 kts | 85° |
| 2026-05-04 21:05 | 39.19473 | 16.91048 | 34183 ft | 491 kts | 85° |
| 2026-05-04 21:06 | 39.19398 | 16.99841 | 34175 ft | 490 kts | 85° |
| 2026-05-04 21:06 | 39.19314 | 17.08633 | 34168 ft | 490 kts | 85° |
| 2026-05-04 21:07 | 39.19226 | 17.17419 | 34188 ft | 490 kts | 84° |
| 2026-05-04 21:07 | 39.19127 | 17.26204 | 34177 ft | 490 kts | 84° |
| 2026-05-04 21:08 | 39.19022 | 17.34981 | 34171 ft | 490 kts | 85° |
| 2026-05-04 21:08 | 39.18912 | 17.43700 | 34185 ft | 489 kts | 84° |
| 2026-05-04 21:09 | 39.18798 | 17.52464 | 34174 ft | 489 kts | 85° |
| 2026-05-04 21:09 | 39.18673 | 17.61229 | 34166 ft | 489 kts | 84° |
| 2026-05-04 21:10 | 39.18545 | 17.70009 | 34160 ft | 489 kts | 85° |
| 2026-05-04 21:10 | 39.18413 | 17.78764 | 34178 ft | 488 kts | 84° |
| 2026-05-04 21:11 | 39.18297 | 17.86039 | 34172 ft | 488 kts | 84° |
| 2026-05-04 21:11 | 39.18115 | 17.96201 | 34167 ft | 488 kts | 84° |
| 2026-05-04 21:12 | 39.17957 | 18.04932 | 34166 ft | 487 kts | 84° |
| 2026-05-04 21:12 | 39.17823 | 18.12253 | 34164 ft | 487 kts | 84° |
| 2026-05-04 21:13 | 39.17657 | 18.20928 | 34162 ft | 487 kts | 84° |
| 2026-05-04 21:13 | 39.17489 | 18.29662 | 34161 ft | 487 kts | 85° |
| 2026-05-04 21:14 | 39.17311 | 18.38393 | 34158 ft | 487 kts | 85° |
| 2026-05-04 21:14 | 39.17122 | 18.47119 | 34178 ft | 487 kts | 85° |
| 2026-05-04 21:15 | 39.16927 | 18.55849 | 34172 ft | 487 kts | 85° |
| 2026-05-04 21:15 | 39.16724 | 18.64572 | 34168 ft | 487 kts | 85° |
| 2026-05-04 21:16 | 39.16515 | 18.73296 | 34171 ft | 487 kts | 85° |
| 2026-05-04 21:16 | 39.16302 | 18.82020 | 34183 ft | 487 kts | 85° |
| 2026-05-04 21:17 | 39.16083 | 18.90734 | 34181 ft | 486 kts | 85° |
| 2026-05-04 21:17 | 39.15858 | 18.99450 | 34175 ft | 486 kts | 85° |
| 2026-05-04 21:18 | 39.15623 | 19.08101 | 34168 ft | 486 kts | 86° |
| 2026-05-04 21:18 | 39.15391 | 19.16806 | 34178 ft | 486 kts | 86° |
| 2026-05-04 21:19 | 39.15156 | 19.25506 | 34169 ft | 486 kts | 86° |
| 2026-05-04 21:19 | 39.14898 | 19.34215 | 34166 ft | 486 kts | 86° |
| 2026-05-04 21:20 | 39.14632 | 19.42915 | 34170 ft | 486 kts | 86° |
| 2026-05-04 21:20 | 39.14366 | 19.51621 | 34183 ft | 486 kts | 86° |
| 2026-05-04 21:21 | 39.14098 | 19.60303 | 34180 ft | 485 kts | 86° |
| 2026-05-04 21:21 | 39.13828 | 19.68983 | 34179 ft | 485 kts | 86° |
| 2026-05-04 21:22 | 39.13549 | 19.77657 | 34178 ft | 484 kts | 86° |
| 2026-05-04 21:22 | 39.13263 | 19.86260 | 34193 ft | 483 kts | 87° |
| 2026-05-04 21:23 | 39.12962 | 19.94902 | 34190 ft | 482 kts | 87° |
| 2026-05-04 21:23 | 39.12655 | 20.03518 | 34186 ft | 481 kts | 87° |
| 2026-05-04 21:24 | 39.12358 | 20.12113 | 34184 ft | 480 kts | 87° |
| 2026-05-04 21:24 | 39.12049 | 20.20703 | 34206 ft | 479 kts | 88° |
| 2026-05-04 21:25 | 39.11723 | 20.29263 | 34198 ft | 478 kts | 88° |
| 2026-05-04 21:25 | 39.11422 | 20.37240 | 34193 ft | 477 kts | 88° |
| 2026-05-04 21:26 | 39.11114 | 20.45354 | 34187 ft | 476 kts | 88° |
| 2026-05-04 21:26 | 39.10782 | 20.53884 | 34187 ft | 477 kts | 88° |
| 2026-05-04 21:27 | 39.10444 | 20.62370 | 34179 ft | 477 kts | 88° |
| 2026-05-04 21:27 | 39.10097 | 20.70905 | 34171 ft | 477 kts | 88° |
| 2026-05-04 21:28 | 39.09749 | 20.79445 | 34172 ft | 478 kts | 88° |
| 2026-05-04 21:28 | 39.09385 | 20.87993 | 34196 ft | 477 kts | 88° |
| 2026-05-04 21:29 | 39.09014 | 20.96527 | 34190 ft | 477 kts | 88° |
| 2026-05-04 21:29 | 39.08642 | 21.05054 | 34193 ft | 477 kts | 88° |
| 2026-05-04 21:30 | 39.08265 | 21.13523 | 34198 ft | 477 kts | 88° |
| 2026-05-04 21:30 | 39.07887 | 21.22045 | 34221 ft | 476 kts | 88° |
| 2026-05-04 21:31 | 39.07311 | 21.34801 | 34214 ft | 476 kts | 88° |
| 2026-05-04 21:31 | 39.07111 | 21.39058 | 34098 ft | 476 kts | 89° |
| 2026-05-04 21:32 | 39.06906 | 21.43303 | 33826 ft | 475 kts | 89° |
| 2026-05-04 21:32 | 39.06700 | 21.47557 | 33353 ft | 476 kts | 88° |
| 2026-05-04 21:32 | 39.06496 | 21.51811 | 32822 ft | 477 kts | 88° |
| 2026-05-04 21:32 | 39.06289 | 21.56075 | 32300 ft | 478 kts | 88° |
| 2026-05-04 21:33 | 39.06079 | 21.60345 | 31789 ft | 479 kts | 88° |
| 2026-05-04 21:33 | 39.05871 | 21.64629 | 31294 ft | 480 kts | 88° |
| 2026-05-04 21:33 | 39.05661 | 21.68926 | 30801 ft | 481 kts | 88° |
| 2026-05-04 21:33 | 39.05448 | 21.73216 | 30322 ft | 479 kts | 88° |
| 2026-05-04 21:34 | 39.05235 | 21.77472 | 29777 ft | 475 kts | 88° |
| 2026-05-04 21:34 | 39.05022 | 21.81695 | 29246 ft | 471 kts | 88° |
| 2026-05-04 21:34 | 39.04819 | 21.85678 | 28719 ft | 466 kts | 89° |
| 2026-05-04 21:34 | 39.04605 | 21.89810 | 28185 ft | 461 kts | 89° |
| 2026-05-04 21:35 | 39.04394 | 21.93907 | 27662 ft | 456 kts | 89° |
| 2026-05-04 21:35 | 39.04184 | 21.97964 | 27144 ft | 452 kts | 89° |
| 2026-05-04 21:35 | 39.03975 | 22.01979 | 26630 ft | 448 kts | 89° |
| 2026-05-04 21:35 | 39.03770 | 22.05958 | 26133 ft | 443 kts | 89° |
| 2026-05-04 21:36 | 39.03565 | 22.09891 | 25645 ft | 439 kts | 89° |
| 2026-05-04 21:36 | 39.03359 | 22.13749 | 25183 ft | 434 kts | 90° |
| 2026-05-04 21:36 | 39.03147 | 22.17646 | 24704 ft | 428 kts | 91° |
| 2026-05-04 21:36 | 39.02945 | 22.21393 | 24243 ft | 422 kts | 91° |
| 2026-05-04 21:37 | 39.02745 | 22.25140 | 23784 ft | 417 kts | 92° |
| 2026-05-04 21:37 | 39.02548 | 22.28832 | 23244 ft | 412 kts | 92° |
| 2026-05-04 21:37 | 39.02353 | 22.32482 | 22705 ft | 407 kts | 92° |
| 2026-05-04 21:37 | 39.02159 | 22.36094 | 22169 ft | 403 kts | 92° |
| 2026-05-04 21:38 | 39.01960 | 22.39671 | 21649 ft | 399 kts | 92° |
| 2026-05-04 21:38 | 39.01759 | 22.43206 | 21136 ft | 395 kts | 92° |
| 2026-05-04 21:38 | 39.01558 | 22.46713 | 20631 ft | 391 kts | 93° |
| 2026-05-04 21:38 | 39.01359 | 22.50183 | 20131 ft | 387 kts | 93° |
| 2026-05-04 21:39 | 39.01162 | 22.53621 | 19644 ft | 384 kts | 93° |
| 2026-05-04 21:39 | 39.00971 | 22.57034 | 19162 ft | 381 kts | 93° |
| 2026-05-04 21:39 | 39.00780 | 22.60420 | 18684 ft | 378 kts | 93° |
| 2026-05-04 21:39 | 39.00589 | 22.63784 | 18182 ft | 375 kts | 93° |
| 2026-05-04 21:40 | 39.00398 | 22.67117 | 17644 ft | 373 kts | 93° |
| 2026-05-04 21:40 | 39.00205 | 22.70446 | 17117 ft | 371 kts | 93° |
| 2026-05-04 21:40 | 39.00014 | 22.73747 | 16598 ft | 369 kts | 93° |
| 2026-05-04 21:40 | 38.99822 | 22.77035 | 16090 ft | 368 kts | 93° |
| 2026-05-04 21:41 | 38.99629 | 22.80301 | 15597 ft | 366 kts | 93° |
| 2026-05-04 21:41 | 38.99436 | 22.83558 | 15110 ft | 365 kts | 93° |
| 2026-05-04 21:41 | 38.99243 | 22.86807 | 14618 ft | 364 kts | 93° |
| 2026-05-04 21:41 | 38.99053 | 22.89999 | 14149 ft | 362 kts | 93° |
| 2026-05-04 21:42 | 38.98858 | 22.93221 | 13645 ft | 361 kts | 93° |
| 2026-05-04 21:42 | 38.98660 | 22.96427 | 13115 ft | 359 kts | 92° |
| 2026-05-04 21:42 | 38.98463 | 22.99610 | 12680 ft | 354 kts | 92° |
| 2026-05-04 21:42 | 38.98272 | 23.02742 | 12292 ft | 349 kts | 92° |
| 2026-05-04 21:43 | 38.98085 | 23.05826 | 11908 ft | 345 kts | 92° |
| 2026-05-04 21:43 | 38.97899 | 23.08891 | 11530 ft | 342 kts | 92° |
| 2026-05-04 21:43 | 38.97714 | 23.11928 | 11164 ft | 340 kts | 91° |
| 2026-05-04 21:43 | 38.97530 | 23.14943 | 10834 ft | 337 kts | 91° |
| 2026-05-04 21:44 | 38.97346 | 23.17941 | 10582 ft | 336 kts | 91° |
| 2026-05-04 21:44 | 38.97160 | 23.20929 | 10342 ft | 335 kts | 91° |
| 2026-05-04 21:44 | 38.96971 | 23.23906 | 10099 ft | 332 kts | 91° |
| 2026-05-04 21:44 | 38.96783 | 23.26805 | 9956 ft | 319 kts | 91° |
| 2026-05-04 21:45 | 38.96604 | 23.29595 | 9825 ft | 308 kts | 90° |
| 2026-05-04 21:45 | 38.96434 | 23.32291 | 9685 ft | 297 kts | 90° |
| 2026-05-04 21:45 | 38.96270 | 23.34863 | 9556 ft | 288 kts | 90° |
| 2026-05-04 21:45 | 38.96106 | 23.37444 | 9422 ft | 285 kts | 90° |
| 2026-05-04 21:46 | 38.95949 | 23.39941 | 9291 ft | 284 kts | 90° |
| 2026-05-04 21:46 | 38.95788 | 23.42467 | 9159 ft | 283 kts | 90° |
| 2026-05-04 21:46 | 38.95627 | 23.44987 | 9038 ft | 284 kts | 90° |
| 2026-05-04 21:46 | 38.95465 | 23.47512 | 8908 ft | 283 kts | 90° |
| 2026-05-04 21:47 | 38.95299 | 23.50034 | 8775 ft | 283 kts | 90° |
| 2026-05-04 21:47 | 38.95134 | 23.52549 | 8643 ft | 282 kts | 90° |
| 2026-05-04 21:47 | 38.94972 | 23.55058 | 8511 ft | 281 kts | 90° |
| 2026-05-04 21:47 | 38.94811 | 23.57563 | 8386 ft | 281 kts | 90° |
| 2026-05-04 21:48 | 38.94986 | 23.60010 | 8258 ft | 273 kts | 69° |
| 2026-05-04 21:48 | 38.95859 | 23.62117 | 8135 ft | 266 kts | 47° |
| 2026-05-04 21:48 | 38.97269 | 23.63600 | 7999 ft | 262 kts | 26° |
| 2026-05-04 21:48 | 38.98995 | 23.64282 | 7870 ft | 261 kts | 5° |
| 2026-05-04 21:49 | 39.00805 | 23.64169 | 7753 ft | 261 kts | 354° |
| 2026-05-04 21:49 | 39.02591 | 23.63905 | 7623 ft | 262 kts | 354° |
| 2026-05-04 21:49 | 39.04402 | 23.63637 | 7342 ft | 261 kts | 354° |
| 2026-05-04 21:49 | 39.06204 | 23.63370 | 6992 ft | 260 kts | 354° |
| 2026-05-04 21:50 | 39.08001 | 23.63104 | 6637 ft | 260 kts | 354° |
| 2026-05-04 21:50 | 39.09797 | 23.62837 | 6265 ft | 259 kts | 354° |
| 2026-05-04 21:50 | 39.11582 | 23.62573 | 5910 ft | 258 kts | 354° |
| 2026-05-04 21:50 | 39.13363 | 23.62308 | 5545 ft | 257 kts | 354° |
| 2026-05-04 21:51 | 39.15135 | 23.62047 | 5193 ft | 256 kts | 354° |
| 2026-05-04 21:51 | 39.16898 | 23.61786 | 4846 ft | 254 kts | 354° |
| 2026-05-04 21:51 | 39.18651 | 23.61516 | 4496 ft | 253 kts | 351° |
| 2026-05-04 21:51 | 39.20239 | 23.60614 | 4357 ft | 255 kts | 318° |
| 2026-05-04 21:52 | 39.21113 | 23.58641 | 4230 ft | 261 kts | 283° |
| 2026-05-04 21:52 | 39.20908 | 23.56310 | 4104 ft | 270 kts | 247° |
| 2026-05-04 21:52 | 39.19671 | 23.54508 | 3978 ft | 275 kts | 211° |
| 2026-05-04 21:52 | 39.17835 | 23.53877 | 3997 ft | 278 kts | 184° |
| 2026-05-04 21:53 | 39.15894 | 23.53725 | 4032 ft | 280 kts | 184° |
| 2026-05-04 21:53 | 39.13934 | 23.53575 | 3711 ft | 286 kts | 184° |
| 2026-05-04 21:53 | 39.11984 | 23.53453 | 3403 ft | 281 kts | 179° |
| 2026-05-04 21:53 | 39.10119 | 23.54033 | 3071 ft | 275 kts | 154° |
| 2026-05-04 21:54 | 39.08398 | 23.55053 | 2726 ft | 270 kts | 168° |
| 2026-05-04 21:54 | 39.06617 | 23.54920 | 2591 ft | 251 kts | 205° |
| 2026-05-04 21:54 | 39.05178 | 23.53774 | 2477 ft | 238 kts | 216° |
| 2026-05-04 21:54 | 39.03814 | 23.52640 | 2350 ft | 229 kts | 214° |
| 2026-05-04 21:55 | 39.02554 | 23.51473 | 2212 ft | 218 kts | 233° |
| 2026-05-04 21:55 | 39.01971 | 23.49785 | 2108 ft | 201 kts | 266° |
| 2026-05-04 21:55 | 39.02191 | 23.48084 | 2049 ft | 190 kts | 298° |
| 2026-05-04 21:55 | 39.03011 | 23.46920 | 2067 ft | 166 kts | 327° |
| 2026-05-04 21:56 | 39.04045 | 23.46489 | 2068 ft | 152 kts | 352° |
| 2026-05-04 21:56 | 39.05080 | 23.46662 | 1812 ft | 148 kts | 9° |
| 2026-05-04 21:56 | 39.06070 | 23.46955 | 1719 ft | 146 kts | 9° |
| 2026-05-04 21:56 | 39.07060 | 23.47243 | 1690 ft | 146 kts | 9° |
| 2026-05-04 21:57 | 39.08048 | 23.47529 | 1663 ft | 145 kts | 9° |
| 2026-05-04 21:57 | 39.09035 | 23.47816 | 1656 ft | 145 kts | 9° |
| 2026-05-04 21:57 | 39.10028 | 23.48102 | 1521 ft | 147 kts | 9° |
| 2026-05-04 21:57 | 39.11020 | 23.48383 | 1307 ft | 146 kts | 9° |
| 2026-05-04 21:58 | 39.12015 | 23.48656 | 1111 ft | 146 kts | 10° |
| 2026-05-04 21:58 | 39.13009 | 23.48851 | 887 ft | 145 kts | 0° |
| 2026-05-04 21:58 | 39.14019 | 23.48851 | 680 ft | 145 kts | 6° |
| 2026-05-04 21:58 | 39.15010 | 23.49165 | 518 ft | 148 kts | 17° |
| 2026-05-04 21:59 | 39.15987 | 23.49590 | 324 ft | 149 kts | 17° |
| 2026-05-04 21:59 | 39.16965 | 23.50035 | 82 ft | 148 kts | 18° |
| 2026-05-04 21:59 | 39.17863 | 23.50432 | 38 ft | 108 kts | 19° |
| 2026-05-04 21:59 | 39.18282 | 23.50628 | 50 ft | 21 kts | 20° |
| 2026-05-04 22:00 | 39.18317 | 23.50642 | 51 ft | 11 kts | 17° |
| 2026-05-04 22:00 | 39.18424 | 23.50686 | 59 ft | 13 kts | 18° |
| 2026-05-04 22:00 | 39.18497 | 23.50743 | 59 ft | 13 kts | 17° |
| 2026-05-04 22:00 | 39.18496 | 23.50696 | 59 ft | 11 kts | 173° |
| 2026-05-04 22:01 | 39.18510 | 23.50724 | 53 ft | 6 kts | 274° |
| 2026-05-04 22:01 | 39.18444 | 23.50693 | 61 ft | 18 kts | 198° |
| 2026-05-04 22:01 | 39.18359 | 23.50655 | 58 ft | 21 kts | 198° |
| 2026-05-04 22:01 | 39.18213 | 23.50591 | 55 ft | 24 kts | 199° |
| 2026-05-04 22:02 | 39.18051 | 23.50519 | 48 ft | 25 kts | 199° |
| 2026-05-04 22:02 | 39.17938 | 23.50436 | 42 ft | 16 kts | 243° |
| 2026-05-04 22:02 | 39.17931 | 23.50376 | 42 ft | 0 kts | 271° |
| 2026-05-04 22:02 | 39.17931 | 23.50374 | 42 ft | 1 kts | 266° |
| 2026-05-04 22:03 | 39.17927 | 23.50357 | 40 ft | 4 kts | 261° |
| 2026-05-04 22:03 | 39.17937 | 23.50303 | 37 ft | 5 kts | 287° |
| 2026-05-04 22:03 | 39.17946 | 23.50267 | 39 ft | 4 kts | 289° |
| 2026-05-04 22:03 | 39.17948 | 23.50261 | 39 ft | 0 kts | 289° |